createdAt,value
2019-02-21T00:00:23.968Z,95055.09
2019-02-21T00:02:45.170Z,95063.49
2019-02-21T00:05:14.150Z,95066.12
2019-02-21T00:07:42.901Z,95060.80
2019-02-21T00:10:13.429Z,95059.66
2019-02-21T00:12:42.115Z,95062.96
2019-02-21T00:15:11.026Z,95058.65
2019-02-21T00:17:39.805Z,95063.49
2019-02-21T00:20:08.500Z,95061.03
2019-02-21T00:22:37.277Z,95059.95
2019-02-21T00:25:08.334Z,95062.30
2019-02-21T00:27:37.094Z,95062.17
2019-02-21T00:30:07.016Z,95057.98
2019-02-21T00:32:35.652Z,95056.48
2019-02-21T00:35:04.802Z,95062.48
2019-02-21T00:37:33.485Z,95058.66
2019-02-21T00:40:02.177Z,95060.54
2019-02-21T00:42:30.981Z,95052.31
2019-02-21T00:44:59.641Z,95057.64
2019-02-21T00:47:28.331Z,95068.08
2019-02-21T00:49:57.020Z,95067.80
2019-02-21T00:52:25.910Z,95066.53
2019-02-21T00:54:54.599Z,95064.77
2019-02-21T00:57:23.281Z,95056.83
2019-02-21T00:59:52.222Z,95058.99
2019-02-21T01:02:20.964Z,95055.66
2019-02-21T01:04:49.650Z,95057.31
2019-02-21T01:07:18.746Z,95060.61
2019-02-21T01:09:47.537Z,95061.25
2019-02-21T01:12:16.320Z,95058.98
2019-02-21T01:14:45.009Z,95055.77
2019-02-21T01:17:13.715Z,95049.84
2019-02-21T01:19:42.405Z,95049.36
2019-02-21T01:22:11.067Z,95056.83
2019-02-21T01:24:40.057Z,95055.55
2019-02-21T01:27:08.968Z,95053.88
2019-02-21T01:29:40.714Z,95046.34
2019-02-21T01:32:09.499Z,95049.97
2019-02-21T01:34:38.206Z,95052.25
2019-02-21T01:37:06.975Z,95050.39
2019-02-21T01:39:35.688Z,95054.23
2019-02-21T01:42:04.457Z,95054.09
2019-02-21T01:44:33.250Z,95054.02
2019-02-21T01:47:02.033Z,95045.13
2019-02-21T01:49:30.728Z,95051.30
2019-02-21T01:52:01.522Z,95053.47
2019-02-21T01:54:32.140Z,95059.41
2019-02-21T01:57:02.133Z,95048.06
2019-02-21T01:59:30.793Z,95056.48
2019-02-21T02:01:59.588Z,95059.05
2019-02-21T02:04:28.203Z,95058.92
2019-02-21T02:07:00.293Z,95053.00
2019-02-21T02:09:31.779Z,95056.69
2019-02-21T02:12:00.465Z,95058.98
2019-02-21T02:14:29.252Z,95059.45
2019-02-21T02:16:57.928Z,95062.33
2019-02-21T02:19:28.163Z,95055.93
2019-02-21T02:21:56.850Z,95062.80
2019-02-21T02:24:25.634Z,95063.20
2019-02-21T02:26:57.086Z,95064.34
2019-02-21T02:29:25.916Z,95058.49
2019-02-21T02:31:58.763Z,95071.40
2019-02-21T02:34:27.549Z,95070.72
2019-02-21T02:36:56.344Z,95064.53
2019-02-21T02:39:25.047Z,95070.23
2019-02-21T02:41:53.723Z,95073.53
2019-02-21T02:44:22.501Z,95067.95
2019-02-21T02:46:56.069Z,95063.17
2019-02-21T02:49:24.790Z,95073.66
2019-02-21T02:51:55.022Z,95078.38
2019-02-21T02:54:24.007Z,95069.98
2019-02-21T02:56:54.147Z,95080.20
2019-02-21T02:59:22.816Z,95077.92
2019-02-21T03:01:51.501Z,95077.31
2019-02-21T03:04:20.295Z,95074.94
2019-02-21T03:06:49.072Z,95079.06
2019-02-21T03:09:17.766Z,95078.05
2019-02-21T03:11:46.546Z,95081.20
2019-02-21T03:14:15.685Z,95074.89
2019-02-21T03:16:44.336Z,95082.89
2019-02-21T03:19:16.110Z,95083.55
2019-02-21T03:21:44.880Z,95080.88
2019-02-21T03:24:14.855Z,95076.65
2019-02-21T03:26:45.122Z,95083.98
2019-02-21T03:29:13.817Z,95086.93
2019-02-21T03:31:54.439Z,95081.62
2019-02-21T03:34:13.189Z,95085.11
2019-02-21T03:36:41.918Z,95085.24
2019-02-21T03:39:10.709Z,95085.98
2019-02-21T03:41:39.906Z,95094.39
2019-02-21T03:44:11.773Z,95092.28
2019-02-21T03:46:40.451Z,95094.05
2019-02-21T03:49:09.133Z,95094.39
2019-02-21T03:51:37.927Z,95093.58
2019-02-21T03:54:06.531Z,95093.58
2019-02-21T03:56:35.362Z,95096.40
2019-02-21T03:59:04.105Z,95099.38
2019-02-21T04:01:32.730Z,95102.78
2019-02-21T04:04:01.414Z,95098.83
2019-02-21T04:06:30.356Z,95103.05
2019-02-21T04:08:59.142Z,95109.13
2019-02-21T04:11:27.852Z,95107.27
2019-02-21T04:13:59.279Z,95111.02
2019-02-21T04:16:29.602Z,95103.18
2019-02-21T04:18:58.393Z,95107.30
2019-02-21T04:21:30.244Z,95117.10
2019-02-21T04:24:02.654Z,95106.28
2019-02-21T04:26:31.318Z,95111.27
2019-02-21T04:29:00.101Z,95116.21
2019-02-21T04:31:28.712Z,95113.95
2019-02-21T04:33:58.190Z,95109.77
2019-02-21T04:36:26.816Z,95117.10
2019-02-21T04:38:56.485Z,95112.93
2019-02-21T04:41:26.714Z,95114.94
2019-02-21T04:43:55.497Z,95109.98
2019-02-21T04:46:28.385Z,95110.77
2019-02-21T04:48:58.501Z,95112.55
2019-02-21T04:51:28.830Z,95111.73
2019-02-21T04:53:57.450Z,95109.25
2019-02-21T04:56:26.203Z,95107.04
2019-02-21T04:58:54.885Z,95104.33
2019-02-21T05:01:23.674Z,95103.39
2019-02-21T05:03:52.362Z,95111.52
2019-02-21T05:06:21.148Z,95108.50
2019-02-21T05:08:51.473Z,95117.39
2019-02-21T05:11:20.160Z,95111.47
2019-02-21T05:13:55.093Z,95109.98
2019-02-21T05:16:23.792Z,95108.11
2019-02-21T05:18:52.463Z,95108.36
2019-02-21T05:21:21.253Z,95107.11
2019-02-21T05:23:49.939Z,95099.86
2019-02-21T05:26:20.263Z,95108.40
2019-02-21T05:28:52.023Z,95103.53
2019-02-21T05:31:38.626Z,95098.64
2019-02-21T05:34:15.004Z,95105.84
2019-02-21T05:37:03.649Z,95107.53
2019-02-21T05:39:41.444Z,95108.23
2019-02-21T05:42:29.929Z,95106.62
2019-02-21T05:45:12.516Z,95112.56
2019-02-21T05:48:03.729Z,95102.19
2019-02-21T05:50:45.941Z,95104.27
2019-02-21T05:53:18.816Z,95103.85
2019-02-21T05:56:04.464Z,95107.17
2019-02-21T05:58:46.911Z,95111.81
2019-02-21T06:01:17.246Z,95106.85
2019-02-21T06:03:56.994Z,95114.78
2019-02-21T06:06:34.509Z,95119.55
2019-02-21T06:09:04.782Z,95121.83
2019-02-21T06:11:35.430Z,95128.81
2019-02-21T06:14:22.353Z,95124.17
2019-02-21T06:16:58.608Z,95125.61
2019-02-21T06:19:33.945Z,95132.52
2019-02-21T06:22:10.722Z,95133.81
2019-02-21T06:24:47.427Z,95132.45
2019-02-21T06:27:27.156Z,95136.55
2019-02-21T06:30:01.893Z,95146.57
2019-02-21T06:32:30.695Z,95145.45
2019-02-21T06:35:02.781Z,95149.02
2019-02-21T06:37:37.888Z,95151.19
2019-02-21T06:40:07.523Z,95147.69
2019-02-21T06:42:37.994Z,95151.92
2019-02-21T06:45:07.411Z,95153.45
2019-02-21T06:47:36.201Z,95160.13
2019-02-21T06:50:05.835Z,95155.70
2019-02-21T06:52:37.153Z,95152.66
2019-02-21T06:55:06.166Z,95158.72
2019-02-21T06:57:39.156Z,95156.52
2019-02-21T07:00:07.830Z,95169.84
2019-02-21T07:02:36.538Z,95174.88
2019-02-21T07:05:06.159Z,95170.83
2019-02-21T07:07:34.912Z,95170.98
2019-02-21T07:10:04.411Z,95169.82
2019-02-21T07:12:33.402Z,95169.08
2019-02-21T07:15:02.192Z,95165.33
2019-02-21T07:17:33.245Z,95173.19
2019-02-21T07:20:03.677Z,95175.25
2019-02-21T07:22:33.966Z,95174.52
2019-02-21T07:25:05.580Z,95173.94
2019-02-21T07:27:35.212Z,95178.89
2019-02-21T07:30:04.684Z,95175.02
2019-02-21T07:32:33.343Z,95173.09
2019-02-21T07:35:03.628Z,95179.26
2019-02-21T07:37:32.362Z,95179.16
2019-02-21T07:40:01.141Z,95172.66
2019-02-21T07:42:29.903Z,95177.88
2019-02-21T07:45:00.791Z,95180.75
2019-02-21T07:47:29.711Z,95185.03
2019-02-21T07:49:58.448Z,95179.00
2019-02-21T07:52:27.235Z,95177.86
2019-02-21T07:55:02.020Z,95181.37
2019-02-21T07:57:32.307Z,95178.86
2019-02-21T08:00:01.090Z,95181.16
2019-02-21T08:02:29.866Z,95179.83
2019-02-21T08:05:02.078Z,95190.39
2019-02-21T08:07:30.732Z,95186.03
2019-02-21T08:09:59.410Z,95184.40
2019-02-21T08:12:28.299Z,95174.22
2019-02-21T08:14:57.091Z,95175.97
2019-02-21T08:17:27.877Z,95168.92
2019-02-21T08:20:07.442Z,95167.88
2019-02-21T08:22:28.219Z,95164.84
2019-02-21T08:24:56.964Z,95160.34
2019-02-21T08:27:25.771Z,95160.94
2019-02-21T08:29:54.437Z,95165.17
2019-02-21T08:32:24.820Z,95157.14
2019-02-21T08:34:53.750Z,95159.72
2019-02-21T08:37:25.674Z,95156.48
2019-02-21T08:39:56.137Z,95160.34
2019-02-21T08:42:24.973Z,95151.50
2019-02-21T08:44:53.715Z,95153.75
2019-02-21T08:47:22.506Z,95154.56
2019-02-21T08:49:52.629Z,95151.02
2019-02-21T08:52:23.021Z,95151.02
2019-02-21T08:54:59.969Z,95147.25
2019-02-21T08:57:22.175Z,95144.44
2019-02-21T08:59:50.990Z,95146.03
2019-02-21T09:02:19.844Z,95142.48
2019-02-21T09:04:48.535Z,95142.53
2019-02-21T09:07:17.345Z,95141.72
2019-02-21T09:09:46.017Z,95147.03
2019-02-21T09:12:14.799Z,95148.28
2019-02-21T09:14:45.121Z,95153.27
2019-02-21T09:17:13.815Z,95147.38
2019-02-21T09:19:42.671Z,95148.67
2019-02-21T09:22:11.589Z,95140.56
2019-02-21T09:24:42.518Z,95142.27
2019-02-21T09:27:10.905Z,95142.73
2019-02-21T09:29:39.593Z,95147.33
2019-02-21T09:32:08.381Z,95138.59
2019-02-21T09:34:37.088Z,95134.98
2019-02-21T09:37:05.859Z,95135.55
2019-02-21T09:39:34.644Z,95131.50
2019-02-21T09:42:03.338Z,95122.34
2019-02-21T09:44:32.225Z,95129.07
2019-02-21T09:47:00.910Z,95124.05
2019-02-21T09:49:29.701Z,95120.75
2019-02-21T09:51:58.589Z,95112.14
2019-02-21T09:54:27.381Z,95118.39
2019-02-21T09:56:56.028Z,95117.48
2019-02-21T09:59:24.759Z,95116.68
2019-02-21T10:01:53.547Z,95117.16
2019-02-21T10:04:31.793Z,95115.45
2019-02-21T10:06:52.961Z,95111.25
2019-02-21T10:09:21.760Z,95109.73
2019-02-21T10:11:50.438Z,95109.56
2019-02-21T10:14:21.464Z,95104.67
2019-02-21T10:16:49.784Z,95101.17
2019-02-21T10:19:18.543Z,95098.92
2019-02-21T10:21:47.226Z,95091.50
2019-02-21T10:24:15.935Z,95092.22
2019-02-21T10:26:44.617Z,95089.02
2019-02-21T10:29:13.386Z,95083.54
2019-02-21T10:31:42.081Z,95090.52
2019-02-21T10:34:10.763Z,95085.31
2019-02-21T10:36:39.558Z,95083.23
2019-02-21T10:39:08.243Z,95080.70
2019-02-21T10:41:36.928Z,95073.03
2019-02-21T10:44:05.713Z,95067.55
2019-02-21T10:46:34.341Z,95068.63
2019-02-21T10:49:03.111Z,95068.27
2019-02-21T10:51:31.778Z,95060.09
2019-02-21T10:54:00.585Z,95055.02
2019-02-21T10:56:29.252Z,95061.78
2019-02-21T10:58:58.105Z,95056.13
2019-02-21T11:01:26.826Z,95058.06
2019-02-21T11:03:55.837Z,95054.31
2019-02-21T11:06:26.150Z,95048.16
2019-02-21T11:08:55.034Z,95035.80
2019-02-21T11:11:23.827Z,95044.98
2019-02-21T11:13:52.511Z,95037.92
2019-02-21T11:16:21.301Z,95036.73
2019-02-21T11:18:49.997Z,95035.48
2019-02-21T11:21:18.772Z,95038.38
2019-02-21T11:23:47.854Z,95038.63
2019-02-21T11:26:16.542Z,95023.96
2019-02-21T11:28:47.250Z,95027.53
2019-02-21T11:31:18.076Z,95013.91
2019-02-21T11:33:46.819Z,95016.08
2019-02-21T11:36:16.853Z,95008.37
2019-02-21T11:38:45.638Z,95012.98
2019-02-21T11:41:15.853Z,95009.36
2019-02-21T11:43:44.630Z,95008.89
2019-02-21T11:46:15.113Z,95003.47
2019-02-21T11:48:43.854Z,95002.38
2019-02-21T11:51:12.532Z,95000.52
2019-02-21T11:53:41.246Z,94989.94
2019-02-21T11:56:10.315Z,94984.70
2019-02-21T11:58:39.003Z,94983.78
2019-02-21T12:01:09.535Z,94985.56
2019-02-21T12:03:38.383Z,94979.05
2019-02-21T12:06:07.115Z,94985.20
2019-02-21T12:08:36.412Z,94987.97
2019-02-21T12:11:05.218Z,94980.05
2019-02-21T12:13:33.986Z,94987.64
2019-02-21T12:16:02.884Z,94972.61
2019-02-21T12:18:31.672Z,94974.45
2019-02-21T12:21:00.313Z,94975.88
2019-02-21T12:23:29.047Z,94977.64
2019-02-21T12:25:58.037Z,94970.55
2019-02-21T12:28:26.921Z,94978.55
2019-02-21T12:30:57.141Z,94979.97
2019-02-21T12:33:26.019Z,94987.66
2019-02-21T12:35:56.362Z,94978.33
2019-02-21T12:38:25.070Z,94989.85
2019-02-21T12:40:55.299Z,94985.47
2019-02-21T12:43:24.081Z,94972.85
2019-02-21T12:45:55.835Z,94978.33
2019-02-21T12:48:24.707Z,94975.94
2019-02-21T12:50:53.474Z,94978.37
2019-02-21T12:53:24.854Z,94977.09
2019-02-21T12:55:53.465Z,94974.95
2019-02-21T12:58:22.127Z,94972.73
2019-02-21T13:00:50.796Z,94973.03
2019-02-21T13:03:19.499Z,94977.56
2019-02-21T13:05:48.124Z,94984.44
2019-02-21T13:08:16.778Z,94978.63
2019-02-21T13:10:45.427Z,94979.89
2019-02-21T13:13:14.124Z,94990.36
2019-02-21T13:15:42.811Z,94978.28
2019-02-21T13:18:15.986Z,94985.66
2019-02-21T13:20:41.815Z,94976.47
2019-02-21T13:23:10.454Z,94986.72
2019-02-21T13:25:39.138Z,94983.68
2019-02-21T13:28:07.758Z,94988.32
2019-02-21T13:30:36.588Z,94980.63
2019-02-21T13:33:05.262Z,94988.42
2019-02-21T13:35:33.891Z,94979.00
2019-02-21T13:38:02.559Z,94992.77
2019-02-21T13:40:31.167Z,94994.09
2019-02-21T13:42:59.839Z,94993.28
2019-02-21T13:45:28.576Z,94996.98
2019-02-21T13:47:57.188Z,94979.27
2019-02-21T13:50:25.865Z,94988.18
2019-02-21T13:52:54.556Z,94984.16
2019-02-21T13:55:23.287Z,94983.16
2019-02-21T13:57:52.026Z,94978.16
2019-02-21T14:00:22.923Z,94982.52
2019-02-21T14:02:51.596Z,94979.11
2019-02-21T14:05:20.209Z,94975.42
2019-02-21T14:07:48.908Z,94979.70
2019-02-21T14:10:17.540Z,94971.55
2019-02-21T14:12:46.160Z,94969.20
2019-02-21T14:15:25.022Z,94966.14
2019-02-21T14:17:53.667Z,94962.23
2019-02-21T14:20:22.364Z,94967.00
2019-02-21T14:22:51.084Z,94961.37
2019-02-21T14:25:19.794Z,94951.94
2019-02-21T14:27:48.387Z,94954.89
2019-02-21T14:30:18.736Z,94958.67
2019-02-21T14:32:47.400Z,94957.29
2019-02-21T14:35:17.994Z,94958.48
2019-02-21T14:37:46.793Z,94950.66
2019-02-21T14:40:16.665Z,94955.89
2019-02-21T14:42:45.391Z,94949.80
2019-02-21T14:45:16.913Z,94955.06
2019-02-21T14:47:47.264Z,94944.78
2019-02-21T14:50:16.156Z,94953.49
2019-02-21T14:52:45.083Z,94952.09
2019-02-21T14:55:15.474Z,94956.48
2019-02-21T14:57:44.289Z,94953.97
2019-02-21T15:00:22.907Z,94953.28
2019-02-21T15:02:52.283Z,94959.19
2019-02-21T15:05:22.878Z,94949.58
2019-02-21T15:07:51.601Z,94952.00
2019-02-21T15:10:20.300Z,94951.19
2019-02-21T15:12:50.151Z,94952.98
2019-02-21T15:15:26.674Z,94957.78
2019-02-21T15:18:06.630Z,94951.19
2019-02-21T15:20:36.180Z,94949.59
2019-02-21T15:22:56.876Z,94959.75
2019-02-21T15:25:25.617Z,94954.75
2019-02-21T15:27:54.401Z,94957.66
2019-02-21T15:30:24.844Z,94953.79
2019-02-21T15:32:53.721Z,94953.67
2019-02-21T15:35:24.076Z,94953.03
2019-02-21T15:37:52.734Z,94957.76
2019-02-21T15:40:21.529Z,94953.91
2019-02-21T15:42:52.545Z,94953.86
2019-02-21T15:45:24.456Z,94955.37
2019-02-21T15:47:53.586Z,94970.48
2019-02-21T15:50:22.648Z,94965.17
2019-02-21T15:52:52.950Z,94970.75
2019-02-21T15:55:23.700Z,94969.66
2019-02-21T15:58:03.276Z,94963.81
2019-02-21T16:00:24.423Z,94964.28
2019-02-21T16:02:53.126Z,94958.72
2019-02-21T16:05:21.806Z,94968.83
2019-02-21T16:07:50.799Z,94959.23
2019-02-21T16:10:24.850Z,94962.34
2019-02-21T16:12:53.568Z,94961.55
2019-02-21T16:15:22.317Z,94965.31
2019-02-21T16:17:51.078Z,94967.14
2019-02-21T16:20:21.044Z,94966.12
2019-02-21T16:22:50.107Z,94969.51
2019-02-21T16:25:23.786Z,94966.48
2019-02-21T16:27:55.253Z,94970.53
2019-02-21T16:30:23.630Z,94980.70
2019-02-21T16:32:52.343Z,94984.25
2019-02-21T16:35:21.717Z,94982.92
2019-02-21T16:37:50.710Z,94984.68
2019-02-21T16:40:21.166Z,94995.20
2019-02-21T16:42:49.915Z,94992.28
2019-02-21T16:45:20.555Z,94991.30
2019-02-21T16:47:49.237Z,94998.92
2019-02-21T16:50:28.824Z,95000.05
2019-02-21T16:52:49.143Z,94994.33
2019-02-21T16:55:24.791Z,95009.92
2019-02-21T16:57:53.439Z,95012.12
2019-02-21T17:00:25.668Z,95013.52
2019-02-21T17:02:54.460Z,95013.57
2019-02-21T17:05:23.140Z,95013.27
2019-02-21T17:07:51.767Z,95011.23
2019-02-21T17:10:20.441Z,95012.30
2019-02-21T17:12:49.120Z,95018.91
2019-02-21T17:15:18.610Z,95025.34
2019-02-21T17:17:47.309Z,95028.41
2019-02-21T17:20:24.592Z,95028.98
2019-02-21T17:22:53.279Z,95036.54
2019-02-21T17:25:22.156Z,95036.19
2019-02-21T17:27:51.601Z,95036.29
2019-02-21T17:30:20.865Z,95034.36
2019-02-21T17:32:49.763Z,95038.14
2019-02-21T17:35:18.456Z,95038.31
2019-02-21T17:37:47.228Z,95040.11
2019-02-21T17:40:21.854Z,95037.52
2019-02-21T17:42:50.663Z,95027.91
2019-02-21T17:45:21.909Z,95031.77
2019-02-21T17:47:51.025Z,95025.51
2019-02-21T17:50:20.464Z,95027.33
2019-02-21T17:52:49.585Z,95021.61
2019-02-21T17:55:18.775Z,95020.64
2019-02-21T17:57:47.676Z,95013.36
2019-02-21T18:00:26.260Z,95026.08
2019-02-21T18:02:54.978Z,95024.98
2019-02-21T18:05:23.931Z,95011.80
2019-02-21T18:07:54.572Z,95010.30
2019-02-21T18:10:23.433Z,94996.98
2019-02-21T18:12:52.286Z,94997.80
2019-02-21T18:15:21.074Z,94997.42
2019-02-21T18:17:49.685Z,95000.84
2019-02-21T18:20:18.456Z,94999.72
2019-02-21T18:22:47.093Z,94997.27
2019-02-21T18:25:21.753Z,94994.05
2019-02-21T18:27:52.233Z,94985.46
2019-02-21T18:30:21.225Z,94990.19
2019-02-21T18:32:50.028Z,94982.66
2019-02-21T18:35:18.824Z,94978.12
2019-02-21T18:37:48.017Z,94972.96
2019-02-21T18:40:20.889Z,94972.36
2019-02-21T18:42:49.966Z,94967.22
2019-02-21T18:45:18.810Z,94967.57
2019-02-21T18:47:47.527Z,94970.47
2019-02-21T18:50:16.434Z,94965.28
2019-02-21T18:52:45.131Z,94960.41
2019-02-21T18:55:14.092Z,94956.86
2019-02-21T18:57:42.876Z,94955.57
2019-02-21T19:00:17.954Z,94964.75
2019-02-21T19:02:46.666Z,94960.83
2019-02-21T19:05:15.532Z,94955.26
2019-02-21T19:07:44.222Z,94950.83
2019-02-21T19:10:17.727Z,94940.50
2019-02-21T19:12:50.083Z,94949.45
2019-02-21T19:15:22.556Z,94948.91
2019-02-21T19:17:51.763Z,94963.86
2019-02-21T19:20:22.110Z,94961.35
2019-02-21T19:22:52.888Z,94956.69
2019-02-21T19:25:22.088Z,94949.45
2019-02-21T19:27:52.852Z,94959.75
2019-02-21T19:30:27.877Z,94953.73
2019-02-21T19:32:59.152Z,94955.20
2019-02-21T19:35:28.348Z,94971.63
2019-02-21T19:38:09.455Z,94954.42
2019-02-21T19:40:32.106Z,94961.50
2019-02-21T19:43:01.013Z,94947.16
2019-02-21T19:45:30.316Z,94951.83
2019-02-21T19:47:59.457Z,94945.91
2019-02-21T19:50:29.180Z,94951.34
2019-02-21T19:52:58.391Z,94946.84
2019-02-21T19:55:28.152Z,94941.34
2019-02-21T19:57:59.719Z,94929.60
2019-02-21T20:00:30.775Z,94928.34
2019-02-21T20:02:59.450Z,94929.92
2019-02-21T20:05:28.413Z,94940.53
2019-02-21T20:08:07.791Z,94939.09
2019-02-21T20:10:27.954Z,94935.67
2019-02-21T20:12:58.261Z,94931.16
2019-02-21T20:15:27.404Z,94940.65
2019-02-21T20:17:56.864Z,94937.75
2019-02-21T20:20:27.395Z,94933.30
2019-02-21T20:22:57.599Z,94937.84
2019-02-21T20:25:26.602Z,94924.13
2019-02-21T20:27:57.449Z,94926.22
2019-02-21T20:30:26.320Z,94920.95
2019-02-21T20:32:55.162Z,94919.30
2019-02-21T20:35:24.037Z,94921.88
2019-02-21T20:37:52.936Z,94920.27
2019-02-21T20:40:21.612Z,94933.25
2019-02-21T20:42:51.910Z,94926.22
2019-02-21T20:45:20.652Z,94937.20
2019-02-21T20:47:49.603Z,94948.29
2019-02-21T20:50:18.488Z,94947.30
2019-02-21T20:52:47.606Z,94957.44
2019-02-21T20:55:19.234Z,94956.17
2019-02-21T20:57:47.991Z,94974.99
2019-02-21T21:00:18.545Z,94965.02
2019-02-21T21:02:47.887Z,94965.64
2019-02-21T21:05:16.934Z,94977.52
2019-02-21T21:07:45.888Z,94968.94
2019-02-21T21:10:15.861Z,94972.20
2019-02-21T21:12:47.771Z,94974.57
2019-02-21T21:15:16.812Z,94981.70
2019-02-21T21:17:46.097Z,94993.13
2019-02-21T21:20:17.478Z,94987.13
2019-02-21T21:22:46.281Z,94991.27
2019-02-21T21:25:16.577Z,94993.12
2019-02-21T21:27:45.232Z,95007.94
2019-02-21T21:30:18.194Z,95018.63
2019-02-21T21:32:46.811Z,95015.54
2019-02-21T21:35:15.662Z,95007.83
2019-02-21T21:37:46.757Z,95002.44
2019-02-21T21:40:19.053Z,95000.31
2019-02-21T21:42:47.685Z,95001.52
2019-02-21T21:45:18.264Z,95009.55
2019-02-21T21:47:46.917Z,95006.80
2019-02-21T21:50:18.693Z,95013.88
2019-02-21T21:52:47.487Z,95018.56
2019-02-21T21:55:16.407Z,95009.05
2019-02-21T21:57:45.494Z,95005.53
2019-02-21T22:00:22.389Z,94998.34
2019-02-21T22:02:51.274Z,95002.71
2019-02-21T22:05:20.853Z,95008.58
2019-02-21T22:07:49.829Z,95010.25
2019-02-21T22:10:18.727Z,95005.47
2019-02-21T22:12:47.431Z,95006.45
2019-02-21T22:15:21.624Z,95006.02
2019-02-21T22:17:50.247Z,94999.16
2019-02-21T22:20:19.000Z,95004.73
2019-02-21T22:22:47.673Z,95005.03
2019-02-21T22:25:16.310Z,95000.69
2019-02-21T22:27:45.125Z,94994.47
2019-02-21T22:30:18.082Z,95009.60
2019-02-21T22:32:47.494Z,94997.38
2019-02-21T22:35:16.153Z,94996.77
2019-02-21T22:37:44.869Z,95001.55
2019-02-21T22:40:15.587Z,94991.95
2019-02-21T22:42:44.287Z,94989.09
2019-02-21T22:45:13.250Z,94992.19
2019-02-21T22:47:41.940Z,94987.81
2019-02-21T22:50:12.890Z,94982.50
2019-02-21T22:52:41.586Z,94978.63
2019-02-21T22:55:10.534Z,94980.89
2019-02-21T22:57:39.403Z,94966.28
2019-02-21T23:00:32.203Z,94977.47
2019-02-21T23:03:01.586Z,94977.03
2019-02-21T23:05:53.013Z,94973.59
2019-02-21T23:08:27.378Z,94968.13
2019-02-21T23:10:56.125Z,94970.75
2019-02-21T23:13:26.346Z,94953.37
2019-02-21T23:15:56.695Z,94966.20
2019-02-21T23:18:25.356Z,94958.89
2019-02-21T23:20:54.096Z,94975.07
2019-02-21T23:23:23.040Z,94976.94
2019-02-21T23:25:51.724Z,94968.75
2019-02-21T23:28:20.412Z,94970.14
2019-02-21T23:30:50.426Z,94971.88
2019-02-21T23:33:19.113Z,94966.91
2019-02-21T23:35:47.817Z,94942.72
2019-02-21T23:38:16.589Z,94962.54
2019-02-21T23:40:45.380Z,94950.39
2019-02-21T23:43:14.169Z,94961.37
2019-02-21T23:45:42.959Z,94969.74
2019-02-21T23:48:11.647Z,94958.34
2019-02-21T23:50:40.427Z,94942.59
2019-02-21T23:53:09.222Z,94952.58
2019-02-21T23:55:37.904Z,94959.00
2019-02-21T23:58:06.595Z,94950.16
